Time;durP1;ratioP1;P1;durP2;ratioP2;P2;SDS_P1;SDS_P2;PMS_P1;PMS_P2;Temp;Humidity;BMP_temperature;BMP_pressure;BME280_temperature;BME280_humidity;BME280_pressure;Samples;Min_cycle;Max_cycle;Signal;HPM_P1;HPM_P2
2022/12/04 00:00:02;;;;;;;3.78;2.05;;;2.20;99.90;;;;;;5059508;28;20585;-72
2022/12/04 00:02:30;;;;;;;2.10;1.40;;;2.20;99.90;;;;;;5068529;28;20261;-71
2022/12/04 00:04:57;;;;;;;1.60;1.50;;;2.20;99.90;;;;;;5067997;28;20227;-72
2022/12/04 00:07:24;;;;;;;7.10;3.15;;;2.20;99.90;;;;;;5067600;28;20203;-72
2022/12/04 00:09:51;;;;;;;1.42;1.20;;;2.20;99.90;;;;;;5068013;28;20218;-72
2022/12/04 00:12:18;;;;;;;4.88;3.55;;;2.20;99.90;;;;;;5068365;28;20211;-71
2022/12/04 00:14:46;;;;;;;5.28;2.97;;;2.20;99.90;;;;;;5068307;28;20656;-71
2022/12/04 00:17:12;;;;;;;5.05;1.05;;;2.20;99.90;;;;;;5067293;28;20210;-71
2022/12/04 00:19:39;;;;;;;3.90;1.98;;;2.30;99.90;;;;;;5067472;28;20217;-71
2022/12/04 00:22:06;;;;;;;4.63;2.45;;;2.20;99.90;;;;;;5068208;28;20195;-71
2022/12/04 00:24:33;;;;;;;7.40;3.00;;;2.20;99.90;;;;;;5067895;28;20585;-71
2022/12/04 00:27:00;;;;;;;3.65;3.35;;;2.20;99.90;;;;;;5067669;28;20226;-72
2022/12/04 00:29:27;;;;;;;5.10;3.65;;;2.20;99.90;;;;;;5063032;28;20195;-72
2022/12/04 00:31:55;;;;;;;3.53;2.00;;;2.20;99.90;;;;;;5047503;28;20211;-72
2022/12/04 00:34:22;;;;;;;4.72;1.63;;;2.20;99.90;;;;;;5048050;28;20200;-73
2022/12/04 00:36:49;;;;;;;4.30;2.28;;;2.20;99.90;;;;;;5046580;28;20210;-71
2022/12/04 00:39:15;;;;;;;1.73;1.63;;;2.20;99.90;;;;;;5048063;28;20282;-72
2022/12/04 00:41:42;;;;;;;7.78;4.25;;;2.30;99.90;;;;;;5047424;28;20203;-72
2022/12/04 00:44:09;;;;;;;2.13;1.90;;;2.20;99.90;;;;;;5047930;28;20231;-71
2022/12/04 00:46:36;;;;;;;4.10;2.30;;;2.30;99.90;;;;;;5046798;28;20662;-71
2022/12/04 00:49:04;;;;;;;2.00;1.85;;;2.20;99.90;;;;;;5048038;28;20230;-72
2022/12/04 00:51:31;;;;;;;3.78;3.53;;;2.20;99.90;;;;;;5047945;28;20222;-71
2022/12/04 00:53:57;;;;;;;6.28;2.42;;;2.20;99.90;;;;;;5047841;28;20200;-71
2022/12/04 00:56:26;;;;;;;1.95;1.50;;;2.20;99.90;;;;;;5047151;28;20206;-71
2022/12/04 00:58:55;;;;;;;3.03;2.38;;;2.10;99.90;;;;;;5048823;28;20212;-71
2022/12/04 01:01:23;;;;;;;5.85;2.10;;;2.10;99.90;;;;;;5067661;28;20677;-71
2022/12/04 01:03:50;;;;;;;3.97;2.83;;;2.20;99.90;;;;;;5068307;28;20244;-72
2022/12/04 01:06:21;;;;;;;5.15;2.60;;;2.20;99.90;;;;;;5067145;28;20199;-72
2022/12/04 01:08:48;;;;;;;5.18;2.83;;;2.20;99.90;;;;;;5067383;28;20499;-71
2022/12/04 01:11:16;;;;;;;4.75;2.67;;;2.20;99.90;;;;;;5067493;28;20202;-72
2022/12/04 01:13:43;;;;;;;2.22;2.03;;;2.10;99.90;;;;;;5067403;28;20638;-71
2022/12/04 01:16:16;;;;;;;5.35;3.20;;;2.10;99.90;;;;;;5067789;28;20205;-72
2022/12/04 01:18:43;;;;;;;1.65;1.10;;;2.20;99.90;;;;;;5067312;28;20613;-71
2022/12/04 01:21:11;;;;;;;6.82;3.03;;;2.20;99.90;;;;;;5067709;28;20654;-72
2022/12/04 01:23:39;;;;;;;2.00;1.90;;;2.20;99.90;;;;;;5067241;28;20226;-72
2022/12/04 01:26:06;;;;;;;3.90;1.73;;;2.20;99.90;;;;;;5066883;28;20207;-71
2022/12/04 01:28:33;;;;;;;2.03;1.75;;;2.10;99.90;;;;;;5067040;28;20205;-72
2022/12/04 01:31:01;;;;;;;2.35;1.40;;;2.10;99.90;;;;;;5049235;28;20203;-71
2022/12/04 01:33:29;;;;;;;2.40;2.20;;;2.10;99.90;;;;;;5047580;28;20212;-72
2022/12/04 01:35:57;;;;;;;3.47;3.03;;;2.10;99.90;;;;;;5047201;28;20204;-71
2022/12/04 01:38:25;;;;;;;4.00;3.03;;;2.10;99.90;;;;;;5046531;28;20200;-71
2022/12/04 01:40:53;;;;;;;3.60;1.13;;;2.10;99.90;;;;;;5046636;28;20581;-71
2022/12/04 01:43:21;;;;;;;5.82;4.25;;;2.20;99.90;;;;;;5047616;28;20215;-72
2022/12/04 01:45:50;;;;;;;1.65;1.55;;;2.20;99.90;;;;;;5047519;28;20206;-71
2022/12/04 01:48:22;;;;;;;4.63;3.00;;;2.20;99.90;;;;;;5049651;28;20204;-71
2022/12/04 01:50:53;;;;;;;2.28;2.08;;;2.20;99.90;;;;;;5051139;28;20204;-71
2022/12/04 01:53:21;;;;;;;2.70;1.63;;;2.20;99.90;;;;;;5050491;28;20207;-72
2022/12/04 01:55:48;;;;;;;3.58;2.40;;;2.10;99.90;;;;;;5050841;28;20600;-72
2022/12/04 01:58:20;;;;;;;1.27;1.23;;;2.10;99.90;;;;;;5050247;28;20204;-72
2022/12/04 02:00:49;;;;;;;3.40;2.10;;;2.10;99.90;;;;;;5050376;28;20211;-71
2022/12/04 02:03:16;;;;;;;2.95;2.63;;;2.30;99.90;;;;;;5050587;28;20196;-72
2022/12/04 02:05:43;;;;;;;12.88;3.90;;;2.20;99.90;;;;;;5048980;28;20208;-72
2022/12/04 02:08:09;;;;;;;5.88;2.50;;;2.20;99.90;;;;;;5050117;28;20546;-71
2022/12/04 02:10:55;;;;;;;2.92;1.55;;;2.20;99.90;;;;;;5050839;28;20212;-71
2022/12/04 02:13:31;;;;;;;3.00;2.35;;;2.30;99.90;;;;;;5050630;28;20192;-71
2022/12/04 02:16:09;;;;;;;2.08;1.90;;;2.20;99.90;;;;;;5050324;28;20218;-72
2022/12/04 02:18:46;;;;;;;6.28;2.72;;;2.20;99.90;;;;;;5068643;28;20217;-72
2022/12/04 02:21:21;;;;;;;3.63;2.83;;;2.20;99.90;;;;;;5071007;28;20618;-72
2022/12/04 02:24:09;;;;;;;6.47;3.13;;;2.20;99.90;;;;;;5069990;28;20610;-71
2022/12/04 02:26:44;;;;;;;3.97;3.78;;;2.20;99.90;;;;;;5069628;28;20184;-72
2022/12/04 02:29:23;;;;;;;5.53;2.20;;;2.20;99.90;;;;;;5067155;28;20579;-71
2022/12/04 02:31:57;;;;;;;1.83;1.58;;;2.20;99.90;;;;;;5050518;28;20294;-71
2022/12/04 02:34:29;;;;;;;1.80;1.23;;;2.20;99.90;;;;;;5050126;28;20298;-71
2022/12/04 02:37:03;;;;;;;1.42;1.33;;;2.30;99.90;;;;;;5049759;28;20663;-71
2022/12/04 02:39:35;;;;;;;4.50;4.05;;;2.20;99.90;;;;;;5050060;28;20334;-72
2022/12/04 02:42:07;;;;;;;4.72;2.38;;;2.30;99.90;;;;;;5049468;28;20221;-71
2022/12/04 02:44:42;;;;;;;11.07;3.03;;;2.20;99.90;;;;;;5049969;28;20255;-72
2022/12/04 02:47:12;;;;;;;8.32;3.13;;;2.20;99.90;;;;;;5049571;28;20203;-72
2022/12/04 02:49:45;;;;;;;0.93;0.65;;;2.10;99.90;;;;;;5049864;28;20204;-72
2022/12/04 02:52:19;;;;;;;1.95;1.30;;;2.10;99.90;;;;;;5049966;28;20219;-72
2022/12/04 02:54:51;;;;;;;1.35;1.25;;;2.30;99.90;;;;;;5049615;28;20291;-71
2022/12/04 02:57:22;;;;;;;3.85;2.90;;;2.30;99.90;;;;;;5049335;28;20236;-71
2022/12/04 02:59:56;;;;;;;5.75;3.55;;;1.90;99.90;;;;;;5057903;28;20195;-72
2022/12/04 03:02:32;;;;;;;4.35;3.63;;;2.30;99.90;;;;;;5070033;28;20214;-71
2022/12/04 03:05:03;;;;;;;4.65;2.35;;;2.30;99.90;;;;;;5069817;28;20644;-72
2022/12/04 03:07:34;;;;;;;6.72;4.07;;;2.20;99.90;;;;;;5069036;28;20622;-71
2022/12/04 03:10:06;;;;;;;4.22;2.92;;;2.20;99.90;;;;;;5069346;28;20207;-71
2022/12/04 03:12:40;;;;;;;4.78;3.65;;;2.20;99.90;;;;;;5069566;28;20202;-72
2022/12/04 03:15:14;;;;;;;1.60;1.42;;;2.20;99.90;;;;;;5069438;28;20204;-72
2022/12/04 03:17:51;;;;;;;2.08;2.03;;;2.20;99.90;;;;;;5068666;28;20582;-72
2022/12/04 03:20:19;;;;;;;3.95;1.90;;;2.20;99.90;;;;;;5069539;28;20594;-72
2022/12/04 03:22:52;;;;;;;8.00;2.70;;;2.20;99.90;;;;;;5069248;28;20199;-72
2022/12/04 03:25:21;;;;;;;5.97;2.97;;;2.20;99.90;;;;;;5068966;28;20233;-72
2022/12/04 03:27:57;;;;;;;2.03;1.60;;;2.30;99.90;;;;;;5068468;28;20203;-71
2022/12/04 03:30:35;;;;;;;1.35;1.25;;;2.40;99.90;;;;;;5055383;28;20737;-72
2022/12/04 03:33:11;;;;;;;2.90;2.67;;;2.40;99.90;;;;;;5048847;28;20263;-71
2022/12/04 03:35:44;;;;;;;4.13;3.30;;;2.30;99.90;;;;;;5049165;28;20684;-71
2022/12/04 03:38:19;;;;;;;1.85;1.52;;;2.20;99.90;;;;;;5048583;28;20203;-70
2022/12/04 03:40:55;;;;;;;2.40;2.25;;;2.20;99.90;;;;;;5047776;28;20208;-71
2022/12/04 03:43:27;;;;;;;4.45;1.90;;;2.20;99.90;;;;;;5048844;28;20611;-71
2022/12/04 03:46:02;;;;;;;2.97;1.65;;;2.30;99.90;;;;;;5049021;28;20600;-72
2022/12/04 03:48:38;;;;;;;3.22;2.95;;;2.30;99.90;;;;;;5048618;28;20234;-71
2022/12/04 03:51:15;;;;;;;1.85;1.75;;;2.40;99.90;;;;;;5048951;28;20258;-71
2022/12/04 03:53:49;;;;;;;3.22;2.90;;;2.20;99.90;;;;;;5048574;28;20380;-71
2022/12/04 03:56:22;;;;;;;4.40;3.05;;;2.10;99.90;;;;;;5048160;28;20670;-71
2022/12/04 03:58:55;;;;;;;4.93;1.08;;;2.20;99.90;;;;;;5049982;28;20227;-71
2022/12/04 04:01:29;;;;;;;3.90;2.83;;;2.20;99.90;;;;;;5068619;28;20658;-71
2022/12/04 04:03:59;;;;;;;1.67;1.17;;;2.30;99.90;;;;;;5068741;28;20210;-72
2022/12/04 04:06:31;;;;;;;1.70;1.58;;;2.30;99.90;;;;;;5067398;28;20200;-71
2022/12/04 04:09:02;;;;;;;14.38;2.78;;;2.30;99.90;;;;;;5068452;28;20205;-72
2022/12/04 04:11:34;;;;;;;1.45;1.35;;;2.20;99.90;;;;;;5068098;28;20205;-71
2022/12/04 04:25:15;;;;;;;3.15;2.47;;;2.40;99.90;;;;;;5067536;28;20223;-72
2022/12/04 04:27:42;;;;;;;4.80;0.98;;;2.40;99.90;;;;;;5067407;28;20214;-72
2022/12/04 04:30:10;;;;;;;5.03;2.20;;;2.30;99.90;;;;;;5057059;28;20207;-72
2022/12/04 04:32:43;;;;;;;1.65;1.55;;;2.30;99.90;;;;;;5047814;28;20212;-71
2022/12/04 04:35:19;;;;;;;2.40;1.50;;;2.20;99.90;;;;;;5048220;28;20234;-72
2022/12/04 04:37:56;;;;;;;3.88;3.38;;;2.30;99.90;;;;;;5046711;28;20559;-72
2022/12/04 04:40:30;;;;;;;1.83;1.15;;;2.30;99.90;;;;;;5047072;28;20206;-71
2022/12/04 04:43:03;;;;;;;3.20;2.55;;;2.40;99.90;;;;;;5047926;28;20210;-72
2022/12/04 04:45:36;;;;;;;1.95;1.48;;;2.40;99.90;;;;;;5048425;28;20233;-71
2022/12/04 04:48:09;;;;;;;1.27;1.17;;;2.30;99.90;;;;;;5047048;28;20211;-72
2022/12/04 04:50:36;;;;;;;2.72;2.53;;;2.20;99.90;;;;;;5047831;28;20204;-71
2022/12/04 04:53:07;;;;;;;3.35;2.20;;;2.30;99.90;;;;;;5047759;28;20207;-72
2022/12/04 04:55:34;;;;;;;4.13;1.45;;;2.20;99.90;;;;;;5047608;28;20210;-72
2022/12/04 04:58:07;;;;;;;2.92;2.38;;;2.20;99.90;;;;;;5047052;28;20208;-71
2022/12/04 05:00:34;;;;;;;8.85;1.45;;;2.10;99.90;;;;;;5063284;28;20203;-72
2022/12/04 05:03:01;;;;;;;2.20;2.03;;;2.20;99.90;;;;;;5068252;28;20209;-71
2022/12/04 05:05:29;;;;;;;8.05;3.20;;;2.20;99.90;;;;;;5067858;28;20237;-72
2022/12/04 05:07:56;;;;;;;1.70;1.25;;;2.20;99.90;;;;;;5067551;28;20530;-72
2022/12/04 05:10:23;;;;;;;6.10;3.03;;;2.20;99.90;;;;;;5067837;28;20195;-71
2022/12/04 05:12:50;;;;;;;2.65;1.98;;;2.30;99.90;;;;;;5067268;28;20204;-71
2022/12/04 05:15:16;;;;;;;3.83;1.92;;;2.20;99.90;;;;;;5067165;28;20227;-72
2022/12/04 05:17:43;;;;;;;4.10;3.65;;;2.30;99.90;;;;;;5066962;28;20197;-71
2022/12/04 05:20:10;;;;;;;4.53;1.30;;;2.30;99.90;;;;;;5067509;28;20203;-72
2022/12/04 05:22:38;;;;;;;2.80;1.45;;;2.20;99.90;;;;;;5069944;28;20249;-71
2022/12/04 05:25:06;;;;;;;2.45;2.08;;;2.10;99.90;;;;;;5071381;28;20229;-71
2022/12/04 05:27:33;;;;;;;1.90;1.80;;;2.20;99.90;;;;;;5070760;28;20274;-72
2022/12/04 05:30:00;;;;;;;1.38;0.98;;;2.20;99.90;;;;;;5060811;28;20290;-71
2022/12/04 05:32:29;;;;;;;2.15;2.05;;;2.10;99.90;;;;;;5051740;28;20204;-71
2022/12/04 05:34:56;;;;;;;3.03;2.35;;;2.10;99.90;;;;;;5051122;28;20673;-71
2022/12/04 05:37:23;;;;;;;3.70;2.63;;;2.10;99.90;;;;;;5050898;28;20200;-72
2022/12/04 05:39:52;;;;;;;2.58;1.20;;;2.30;99.90;;;;;;5050176;28;20203;-73
2022/12/04 05:42:19;;;;;;;2.60;2.20;;;2.40;99.90;;;;;;5050557;28;20666;-72
2022/12/04 05:44:47;;;;;;;3.75;3.40;;;2.20;99.90;;;;;;5050926;28;20230;-71
2022/12/04 05:47:14;;;;;;;4.03;2.45;;;2.20;99.90;;;;;;5050866;28;20206;-71
2022/12/04 05:49:41;;;;;;;1.35;1.25;;;2.10;99.90;;;;;;5050986;28;20215;-72
2022/12/04 05:52:09;;;;;;;4.80;2.42;;;2.10;99.90;;;;;;5051224;28;20204;-71
2022/12/04 05:54:36;;;;;;;2.80;2.60;;;2.20;99.90;;;;;;5050530;28;20713;-72
2022/12/04 05:57:04;;;;;;;2.65;1.73;;;2.10;99.90;;;;;;5050463;28;20204;-72
2022/12/04 05:59:31;;;;;;;6.18;1.58;;;2.10;99.90;;;;;;5057639;28;20191;-71
2022/12/04 06:01:57;;;;;;;4.28;2.25;;;2.00;99.90;;;;;;5071168;28;20199;-71
2022/12/04 06:04:25;;;;;;;12.43;2.85;;;2.10;99.90;;;;;;5070676;28;20281;-72
2022/12/04 06:06:53;;;;;;;4.25;3.15;;;2.10;99.90;;;;;;5070204;28;20626;-72
2022/12/04 06:09:20;;;;;;;2.58;2.35;;;2.10;99.90;;;;;;5070492;28;20237;-71
2022/12/04 06:11:47;;;;;;;3.80;2.17;;;2.10;99.90;;;;;;5070708;28;20211;-71
2022/12/04 06:14:15;;;;;;;1.85;1.50;;;2.30;99.90;;;;;;5070748;28;20211;-72
2022/12/04 06:16:44;;;;;;;2.75;2.38;;;2.20;99.90;;;;;;5069721;28;20201;-71
2022/12/04 06:19:14;;;;;;;4.40;3.45;;;2.20;99.90;;;;;;5070556;28;20302;-71
2022/12/04 06:21:42;;;;;;;2.83;1.95;;;2.40;99.90;;;;;;5070617;28;20208;-72
2022/12/04 06:24:13;;;;;;;3.55;2.00;;;2.30;99.90;;;;;;5070149;28;20203;-72
2022/12/04 06:26:40;;;;;;;2.40;1.90;;;2.20;99.90;;;;;;5069328;28;20231;-71
2022/12/04 06:29:06;;;;;;;0.85;0.85;;;2.20;99.90;;;;;;5067828;28;20207;-71
2022/12/04 06:31:36;;;;;;;3.05;1.88;;;2.10;99.90;;;;;;5050113;28;20208;-72
2022/12/04 06:34:04;;;;;;;3.70;2.97;;;2.20;99.90;;;;;;5049502;28;20192;-72
2022/12/04 06:36:31;;;;;;;4.50;2.60;;;2.20;99.90;;;;;;5049129;28;20215;-71
2022/12/04 06:38:58;;;;;;;0.95;0.90;;;2.20;99.90;;;;;;5050397;28;20210;-71
2022/12/04 06:41:26;;;;;;;3.33;2.80;;;2.20;99.90;;;;;;5049332;28;20204;-72
2022/12/04 06:43:53;;;;;;;2.88;2.58;;;2.10;99.90;;;;;;5049958;28;20315;-72
2022/12/04 06:46:23;;;;;;;1.95;1.80;;;2.10;99.90;;;;;;5049339;28;20228;-71
2022/12/04 06:48:51;;;;;;;3.78;3.13;;;2.10;99.90;;;;;;5050223;28;20545;-71
2022/12/04 06:51:20;;;;;;;5.10;2.40;;;2.10;99.90;;;;;;5049731;28;20644;-71
2022/12/04 06:53:47;;;;;;;6.38;1.65;;;2.10;99.90;;;;;;5050037;28;20656;-71
2022/12/04 06:56:16;;;;;;;1.02;1.02;;;2.10;99.90;;;;;;5049565;28;20214;-71
2022/12/04 06:58:44;;;;;;;4.20;1.92;;;2.00;99.90;;;;;;5050295;28;20214;-72
2022/12/04 07:01:12;;;;;;;2.95;1.95;;;2.10;99.90;;;;;;5069608;28;20205;-72
2022/12/04 07:03:40;;;;;;;1.55;0.60;;;2.00;99.90;;;;;;5069328;28;20211;-72
2022/12/04 07:06:13;;;;;;;4.55;2.25;;;2.10;99.90;;;;;;5070035;28;20231;-71
2022/12/04 07:08:40;;;;;;;1.65;1.52;;;2.10;99.90;;;;;;5069604;28;20199;-71
2022/12/04 07:11:07;;;;;;;3.33;2.70;;;2.10;99.90;;;;;;5069929;28;20203;-71
2022/12/04 07:13:34;;;;;;;3.33;1.90;;;2.10;99.90;;;;;;5069316;28;20670;-72
2022/12/04 07:16:01;;;;;;;3.67;1.67;;;2.10;99.90;;;;;;5068705;28;20199;-71
2022/12/04 07:18:28;;;;;;;1.55;1.45;;;2.10;99.90;;;;;;5068779;28;20217;-71
2022/12/04 07:20:55;;;;;;;1.63;1.52;;;2.10;99.90;;;;;;5069633;28;20203;-71
2022/12/04 07:23:24;;;;;;;2.80;2.58;;;2.10;99.90;;;;;;5069314;28;20240;-71
2022/12/04 07:25:50;;;;;;;4.13;3.10;;;2.20;99.90;;;;;;5069059;28;20227;-71
2022/12/04 07:28:17;;;;;;;3.38;2.63;;;2.10;99.90;;;;;;5068521;28;20214;-72
2022/12/04 07:30:44;;;;;;;2.38;2.22;;;2.10;99.90;;;;;;5052434;28;20705;-71
2022/12/04 07:33:11;;;;;;;2.25;1.77;;;2.10;99.90;;;;;;5049443;28;20287;-72
2022/12/04 07:35:38;;;;;;;1.25;1.15;;;2.10;99.90;;;;;;5049039;28;20206;-71
2022/12/04 07:38:05;;;;;;;2.80;2.35;;;2.10;99.90;;;;;;5048448;28;20249;-71
2022/12/04 07:40:33;;;;;;;2.95;1.75;;;2.20;99.90;;;;;;5048377;28;20203;-72
2022/12/04 07:43:00;;;;;;;2.58;0.65;;;2.20;99.90;;;;;;5049050;28;20236;-72
2022/12/04 07:45:26;;;;;;;0.98;0.95;;;2.20;99.90;;;;;;5048131;28;20898;-72
2022/12/04 07:47:53;;;;;;;1.40;1.30;;;2.30;99.90;;;;;;5048140;28;20207;-71
2022/12/04 07:50:20;;;;;;;13.25;2.92;;;2.30;99.90;;;;;;5049154;28;20200;-71
2022/12/04 07:52:47;;;;;;;3.42;1.50;;;2.20;99.90;;;;;;5048755;28;20286;-71
2022/12/04 07:55:13;;;;;;;4.05;1.60;;;2.20;99.90;;;;;;5048881;28;20212;-71
2022/12/04 07:57:42;;;;;;;3.05;2.47;;;2.20;99.90;;;;;;5047514;28;20230;-71
2022/12/04 08:00:10;;;;;;;1.15;1.05;;;2.20;99.90;;;;;;5060712;28;20198;-72
2022/12/04 08:02:37;;;;;;;1.83;1.73;;;2.20;99.90;;;;;;5068657;28;20203;-71
2022/12/04 08:05:04;;;;;;;2.30;2.10;;;2.20;99.90;;;;;;5068291;28;20215;-71
2022/12/04 08:07:32;;;;;;;1.00;1.00;;;2.20;99.90;;;;;;5068013;28;20207;-71
2022/12/04 08:09:59;;;;;;;3.78;3.45;;;2.30;99.90;;;;;;5068417;28;20203;-71
2022/12/04 08:12:25;;;;;;;1.50;1.40;;;2.30;99.90;;;;;;5068307;28;20417;-71
2022/12/04 08:14:54;;;;;;;1.65;1.35;;;2.30;99.90;;;;;;5068494;28;20207;-72
2022/12/04 08:17:20;;;;;;;3.60;1.50;;;2.30;99.90;;;;;;5067741;28;20199;-72
2022/12/04 08:19:47;;;;;;;3.85;3.25;;;2.30;99.90;;;;;;5068106;28;20223;-71
2022/12/04 08:22:14;;;;;;;3.70;2.88;;;2.30;99.90;;;;;;5068437;28;20313;-71
2022/12/04 08:24:41;;;;;;;6.28;2.72;;;2.40;99.90;;;;;;5067781;28;20207;-71
2022/12/04 08:27:09;;;;;;;2.63;1.88;;;2.40;99.90;;;;;;5067494;28;20325;-72
2022/12/04 08:29:36;;;;;;;2.72;2.22;;;2.40;99.90;;;;;;5061519;28;20200;-72
2022/12/04 08:32:05;;;;;;;3.05;1.77;;;2.40;99.90;;;;;;5048015;28;20226;-72
2022/12/04 08:34:31;;;;;;;1.20;0.65;;;2.40;99.90;;;;;;5047910;28;20697;-72
2022/12/04 08:36:58;;;;;;;1.42;1.33;;;2.40;99.90;;;;;;5047530;28;20207;-71
2022/12/04 08:39:25;;;;;;;3.67;2.20;;;2.40;99.90;;;;;;5047518;28;20251;-71
2022/12/04 08:41:53;;;;;;;2.78;2.22;;;2.40;99.90;;;;;;5047593;28;20224;-72
2022/12/04 08:44:19;;;;;;;3.58;1.60;;;2.40;99.90;;;;;;5047993;28;20225;-72
2022/12/04 08:46:46;;;;;;;5.25;3.00;;;2.40;99.90;;;;;;5047087;28;20698;-71
2022/12/04 08:49:14;;;;;;;2.65;1.95;;;2.40;99.90;;;;;;5047976;28;20210;-71
2022/12/04 08:51:41;;;;;;;5.10;4.65;;;2.40;99.90;;;;;;5047810;28;20207;-72
2022/12/04 08:54:09;;;;;;;3.92;2.78;;;2.50;99.90;;;;;;5047960;28;20212;-71
2022/12/04 08:56:36;;;;;;;1.48;1.15;;;2.50;99.90;;;;;;5046350;28;20291;-72
2022/12/04 08:59:04;;;;;;;1.65;0.80;;;2.50;99.90;;;;;;5050667;28;20187;-72
2022/12/04 09:01:31;;;;;;;1.33;1.20;;;2.50;99.90;;;;;;5067786;28;20199;-71
2022/12/04 09:03:58;;;;;;;2.42;2.33;;;2.50;99.90;;;;;;5067861;28;20199;-71
2022/12/04 09:06:26;;;;;;;2.55;1.33;;;2.50;99.90;;;;;;5066716;28;20321;-71
2022/12/04 09:08:54;;;;;;;0.50;0.50;;;2.50;99.90;;;;;;5068145;28;20204;-72
2022/12/04 09:11:23;;;;;;;5.85;1.88;;;2.50;99.90;;;;;;5067767;28;20689;-71
2022/12/04 09:13:50;;;;;;;1.98;1.88;;;2.60;99.90;;;;;;5067710;28;20290;-71
2022/12/04 09:16:19;;;;;;;2.30;1.85;;;2.60;99.90;;;;;;5067146;28;20199;-70
2022/12/04 09:18:46;;;;;;;0.75;0.75;;;2.60;99.90;;;;;;5067569;28;20211;-70
2022/12/04 09:21:16;;;;;;;4.72;4.43;;;2.60;99.90;;;;;;5066945;28;20633;-71
2022/12/04 09:23:45;;;;;;;5.35;3.10;;;2.60;99.90;;;;;;5067967;28;20199;-71
2022/12/04 09:26:21;;;;;;;1.40;1.30;;;2.60;99.90;;;;;;5067595;28;20264;-71
2022/12/04 09:28:49;;;;;;;5.07;2.17;;;2.60;99.90;;;;;;5067633;28;20207;-71
2022/12/04 09:31:16;;;;;;;5.15;2.92;;;2.60;99.90;;;;;;5047313;28;20206;-71
2022/12/04 09:33:43;;;;;;;1.90;1.80;;;2.60;99.90;;;;;;5048900;28;20208;-71
2022/12/04 09:36:14;;;;;;;10.48;3.97;;;2.60;99.90;;;;;;5067339;28;20216;-71
2022/12/04 09:38:42;;;;;;;8.27;4.10;;;2.60;99.90;;;;;;5067714;28;20206;-71
2022/12/04 09:41:33;;;;;;;1.58;1.48;;;2.60;99.90;;;;;;5066463;28;20207;-71
2022/12/04 09:44:04;;;;;;;5.50;2.70;;;2.60;99.90;;;;;;5067373;28;20205;-71
2022/12/04 09:46:35;;;;;;;5.80;2.50;;;2.60;99.90;;;;;;5066513;28;20223;-72
2022/12/04 09:49:06;;;;;;;3.42;1.40;;;2.60;99.90;;;;;;5067613;28;20204;-72
2022/12/04 09:51:37;;;;;;;2.15;1.70;;;2.60;99.90;;;;;;5067377;28;20278;-72
2022/12/04 09:54:10;;;;;;;4.88;3.15;;;2.70;99.90;;;;;;5067463;28;20203;-71
2022/12/04 09:56:38;;;;;;;3.78;2.67;;;2.70;99.90;;;;;;5065980;28;20742;-71
2022/12/04 09:59:14;;;;;;;3.38;1.60;;;2.70;99.90;;;;;;5064159;28;20607;-72
2022/12/04 10:01:46;;;;;;;2.88;2.65;;;2.70;99.90;;;;;;5047538;28;20210;-71
2022/12/04 10:04:13;;;;;;;6.75;3.47;;;2.70;99.90;;;;;;5047336;28;20204;-72
2022/12/04 10:06:46;;;;;;;3.80;2.67;;;2.70;99.90;;;;;;5046448;28;20236;-71
2022/12/04 10:09:19;;;;;;;2.35;2.22;;;2.70;99.90;;;;;;5049681;28;20195;-71
2022/12/04 10:11:52;;;;;;;4.18;3.45;;;2.70;99.90;;;;;;5050792;28;20192;-71
2022/12/04 10:14:32;;;;;;;3.95;3.65;;;2.70;99.90;;;;;;5050826;28;20582;-72
2022/12/04 10:17:21;;;;;;;4.50;3.63;;;2.70;99.90;;;;;;5055571;28;20286;-71
2022/12/04 10:19:56;;;;;;;3.15;2.10;;;2.70;99.90;;;;;;5070144;28;20207;-71
2022/12/04 10:22:29;;;;;;;2.50;2.38;;;2.70;99.90;;;;;;5070765;28;20207;-72
2022/12/04 10:25:00;;;;;;;3.03;2.60;;;2.60;99.90;;;;;;5070737;28;20203;-71
2022/12/04 10:27:32;;;;;;;1.77;1.63;;;2.60;99.90;;;;;;5069687;28;20352;-71
2022/12/04 10:30:04;;;;;;;3.70;1.27;;;2.40;99.90;;;;;;5060009;28;20200;-71
2022/12/04 10:32:33;;;;;;;3.67;2.60;;;2.60;99.90;;;;;;5050406;28;20204;-72
2022/12/04 10:35:15;;;;;;;3.22;2.95;;;2.60;99.90;;;;;;5050500;28;20617;-73
2022/12/04 10:37:43;;;;;;;2.53;2.33;;;2.70;99.90;;;;;;5049490;28;20203;-73
2022/12/04 10:40:16;;;;;;;4.85;1.92;;;2.70;99.90;;;;;;5048460;28;20210;-70
2022/12/04 10:42:51;;;;;;;1.95;1.50;;;2.70;99.90;;;;;;5050256;28;20199;-70
2022/12/04 10:45:19;;;;;;;2.60;1.55;;;2.70;99.90;;;;;;5050177;28;20208;-71
2022/12/04 10:47:49;;;;;;;6.18;3.08;;;2.70;99.90;;;;;;5049223;28;20239;-72
2022/12/04 10:50:18;;;;;;;5.25;2.75;;;2.80;99.90;;;;;;5049916;28;20287;-72
2022/12/04 10:52:45;;;;;;;1.83;1.73;;;2.80;99.90;;;;;;5049558;28;20208;-72
2022/12/04 10:55:12;;;;;;;6.13;1.98;;;2.80;99.90;;;;;;5049845;28;20200;-72
2022/12/04 10:57:41;;;;;;;3.38;2.22;;;2.80;99.90;;;;;;5049244;28;20206;-72
2022/12/04 11:00:26;;;;;;;3.80;1.77;;;2.80;99.90;;;;;;5061567;28;20209;-72
2022/12/04 11:02:54;;;;;;;5.68;2.28;;;2.80;99.90;;;;;;5069653;28;20268;-72
2022/12/04 11:05:28;;;;;;;2.45;1.05;;;2.80;99.90;;;;;;5069084;28;20205;-72
2022/12/04 11:07:56;;;;;;;2.80;2.53;;;2.80;99.90;;;;;;5069221;28;20226;-71
2022/12/04 11:10:30;;;;;;;5.53;3.35;;;2.80;99.90;;;;;;5069630;28;20606;-71
2022/12/04 11:13:00;;;;;;;2.95;2.72;;;2.80;99.90;;;;;;5070107;28;20209;-71
2022/12/04 11:15:29;;;;;;;2.42;2.22;;;2.80;99.90;;;;;;5069440;28;20199;-72
2022/12/04 11:18:06;;;;;;;3.78;1.75;;;2.80;99.90;;;;;;5068829;28;20201;-72
2022/12/04 11:20:33;;;;;;;3.85;2.83;;;2.80;99.90;;;;;;5068694;28;20230;-72
2022/12/04 11:23:00;;;;;;;4.57;2.47;;;2.70;99.90;;;;;;5069773;28;20203;-72
2022/12/04 11:25:30;;;;;;;5.18;3.63;;;2.70;99.90;;;;;;5069524;28;20230;-71
2022/12/04 11:28:00;;;;;;;2.80;2.42;;;2.70;99.90;;;;;;5068732;28;20238;-72
2022/12/04 11:30:33;;;;;;;2.30;1.38;;;2.70;99.90;;;;;;5054822;28;20618;-71
2022/12/04 11:33:01;;;;;;;5.28;3.15;;;2.70;99.90;;;;;;5049405;28;20204;-71
2022/12/04 11:35:30;;;;;;;8.63;4.15;;;2.80;99.90;;;;;;5049112;28;20199;-72
2022/12/04 11:37:58;;;;;;;4.03;3.10;;;2.80;99.90;;;;;;5048905;28;20200;-71
2022/12/04 11:40:26;;;;;;;3.60;3.30;;;2.80;99.90;;;;;;5047808;28;20208;-71
2022/12/04 11:43:04;;;;;;;3.20;2.88;;;2.70;99.90;;;;;;5048788;28;20255;-71
2022/12/04 11:45:33;;;;;;;5.43;3.53;;;2.80;99.90;;;;;;5048683;28;20627;-71
2022/12/04 11:48:01;;;;;;;6.15;3.67;;;2.80;99.90;;;;;;5048505;28;20234;-72
2022/12/04 11:50:37;;;;;;;5.97;3.40;;;2.80;99.90;;;;;;5049087;28;20295;-72
2022/12/04 11:53:12;;;;;;;2.65;1.50;;;2.80;99.90;;;;;;5048627;28;20674;-71
2022/12/04 11:56:01;;;;;;;6.75;1.95;;;2.80;99.90;;;;;;5048708;28;20231;-71
2022/12/04 11:58:57;;;;;;;3.42;1.65;;;2.90;99.90;;;;;;5048368;28;20224;-72
2022/12/04 12:01:38;;;;;;;4.07;3.03;;;2.90;99.90;;;;;;5044949;28;20223;-71
2022/12/04 12:04:33;;;;;;;2.25;1.67;;;2.80;99.90;;;;;;5049117;28;20218;-71
2022/12/04 12:07:16;;;;;;;3.20;2.08;;;2.80;99.90;;;;;;5045188;28;20240;-72
2022/12/04 12:09:48;;;;;;;4.60;1.42;;;2.80;99.90;;;;;;5048292;28;20254;-72
2022/12/04 12:12:19;;;;;;;4.20;3.70;;;2.90;99.90;;;;;;5048959;28;20206;-71
2022/12/04 12:14:55;;;;;;;4.07;2.03;;;2.90;99.90;;;;;;5048617;28;20210;-72
2022/12/04 12:17:32;;;;;;;1.50;1.40;;;2.80;99.90;;;;;;5055601;28;20206;-71
2022/12/04 12:20:09;;;;;;;4.07;2.20;;;2.80;99.90;;;;;;5068827;28;20294;-72
2022/12/04 12:23:11;;;;;;;5.72;2.75;;;2.80;99.90;;;;;;5068248;28;20586;-72
2022/12/04 12:25:46;;;;;;;4.95;2.53;;;2.80;99.90;;;;;;5068192;28;20205;-71
2022/12/04 12:28:21;;;;;;;8.32;3.67;;;2.60;99.90;;;;;;5067601;28;20614;-72
2022/12/04 12:31:04;;;;;;;7.32;3.13;;;2.60;99.90;;;;;;5050762;28;20204;-72
2022/12/04 12:33:36;;;;;;;1.23;1.20;;;2.70;99.90;;;;;;5048260;28;20203;-71
2022/12/04 12:36:08;;;;;;;5.45;3.50;;;2.60;99.90;;;;;;5048369;28;20200;-71
2022/12/04 12:38:40;;;;;;;3.65;2.40;;;2.60;99.90;;;;;;5047312;28;20200;-71
2022/12/04 12:41:12;;;;;;;1.02;1.00;;;2.60;99.90;;;;;;5046316;28;20204;-71
2022/12/04 12:43:41;;;;;;;2.58;2.30;;;2.40;99.90;;;;;;5047911;28;20235;-71
2022/12/04 12:46:14;;;;;;;8.27;2.65;;;2.50;99.90;;;;;;5047813;28;20208;-70
2022/12/04 12:48:49;;;;;;;1.17;1.08;;;2.60;99.90;;;;;;5047590;28;20235;-71
2022/12/04 12:51:25;;;;;;;1.98;1.65;;;2.70;99.90;;;;;;5048183;28;20203;-71
2022/12/04 12:53:58;;;;;;;2.83;1.52;;;2.60;99.90;;;;;;5048047;28;20196;-71
2022/12/04 12:56:32;;;;;;;4.63;3.05;;;2.50;99.90;;;;;;5047674;28;20283;-71
2022/12/04 12:59:03;;;;;;;6.75;4.35;;;2.40;99.90;;;;;;5047685;28;20252;-71
2022/12/04 13:01:39;;;;;;;3.53;2.28;;;2.60;99.90;;;;;;5047709;28;20200;-71
2022/12/04 13:04:12;;;;;;;3.58;2.28;;;2.70;99.90;;;;;;5047640;28;20257;-70
2022/12/04 13:06:42;;;;;;;1.20;1.10;;;2.60;99.90;;;;;;5047218;28;20212;-70
2022/12/04 13:09:17;;;;;;;7.68;4.22;;;2.50;99.90;;;;;;5047810;28;20295;-71
2022/12/04 13:11:49;;;;;;;2.95;2.00;;;2.40;99.90;;;;;;5047911;28;20204;-71
2022/12/04 13:14:16;;;;;;;1.40;1.30;;;2.30;99.90;;;;;;5047392;28;20215;-70
2022/12/04 13:16:46;;;;;;;1.15;1.05;;;2.30;99.90;;;;;;5049654;28;20198;-70
2022/12/04 13:19:19;;;;;;;2.35;1.85;;;2.30;99.90;;;;;;5067530;28;20211;-71
2022/12/04 13:21:55;;;;;;;3.22;2.67;;;2.40;99.90;;;;;;5067905;28;20207;-71
2022/12/04 13:25:00;;;;;;;2.28;1.67;;;2.40;99.90;;;;;;5067621;28;20573;-71